BIRK/RKV METAR and TAF weather

Enter ICAO airport designator
Station Type Date Time Source
BIRK METAR 2021/06/23 00:00 UTC NOAA

BIRK 230000Z 34007KT 9999 FEW026 09/05 Q1013


Station Type Date Time Source
BIRK Decoded METAR 2021/06/23 00:00 UTC NOAA

Reykjavik, Iceland (BIRK) 64-08N 021-54W 61M
Jun 22, 2021 - 08:00 PM EDT / 2021.06.23 0000 UTC
Wind: from the NNW (340 degrees) at 8 MPH (7 KT):0
Visibility: greater than 7 mile(s):0
Sky conditions: mostly clear
Temperature: 48 F (9 C)
Dew Point: 41 F (5 C)
Relative Humidity: 75%
Pressure (altimeter): 29.91 in. Hg (1013 hPa)
ob: BIRK 230000Z 34007KT 9999 FEW026 09/05 Q1013
cycle: 0

Station Type Date Time Source
BIRK TAF 2021/06/22 21:46 UTC NOAA

TAF BIRK 221944Z 2221/2321 29005KT 9999 SCT010 BKN020 TX14/2317Z TN05/2304Z
BECMG 2222/2300 36010KT CAVOK

Example: see airport list